Boekel, Netherlands
Current Conditions -  °F | °C
As of 7:25 PM on Thursday 27 Nov 2014 (Local Time) from EHVK Reporting Station
Light Rain Light Rain  
Wind Chill: 40°   Ceiling: 1500
Heat Index: 45°   Visibility: 1.6mi
Dew Point: 43°   Wind: 9mph
Humidity: 93%   Direction: 110°ESE
Pressure: 29.71"   Gusts: NA
Location:  51.6°N, 5.68°E
Report Text: EHVK 271825Z AUTO 11008KT 2600 R06L/2500 -RADZ FEW009 BKN015 BKN023 07/06 Q1006 YLO 11010KT 8000 SCT020 BKN025 TEMPO 3000 -DZRA SCT006 BKN020
Loading
Personal Weather Stations






























Interactive Weather Map New forecast layout! Learn more

10-Day Weather Forecast

Advertisements
Track Severe Weather on mobile